createdAt,value
2022-12-12T00:00:52.202Z,1003.16
2022-12-12T00:01:52.193Z,1003.16
2022-12-12T00:02:52.254Z,1003.24
2022-12-12T00:03:52.347Z,1003.22
2022-12-12T00:04:52.153Z,1003.17
2022-12-12T00:05:52.138Z,1003.19
2022-12-12T00:06:52.135Z,1003.19
2022-12-12T00:07:52.184Z,1003.16
2022-12-12T00:08:52.133Z,1003.13
2022-12-12T00:09:52.111Z,1003.11
2022-12-12T00:10:52.134Z,1003.02
2022-12-12T00:11:52.092Z,1002.95
2022-12-12T00:12:52.105Z,1002.90
2022-12-12T00:13:52.056Z,1002.89
2022-12-12T00:14:52.043Z,1002.85
2022-12-12T00:15:52.112Z,1002.75
2022-12-12T00:16:52.051Z,1002.70
2022-12-12T00:17:52.024Z,1002.71
2022-12-12T00:18:52.016Z,1002.72
2022-12-12T00:19:52.018Z,1002.66
2022-12-12T00:20:51.989Z,1002.73
2022-12-12T00:21:51.979Z,1002.76
2022-12-12T00:22:51.956Z,1002.86
2022-12-12T00:23:51.977Z,1002.92
2022-12-12T00:24:51.946Z,1002.95
2022-12-12T00:25:51.947Z,1003.01
2022-12-12T00:26:51.944Z,1003.07
2022-12-12T00:27:51.907Z,1003.06
2022-12-12T00:28:51.896Z,1003.03
2022-12-12T00:29:51.902Z,1003.08
2022-12-12T00:30:51.962Z,1003.07
2022-12-12T00:31:51.893Z,1003.06
2022-12-12T00:32:51.865Z,1003.05
2022-12-12T00:33:51.848Z,1003.08
2022-12-12T00:34:51.837Z,1003.07
2022-12-12T00:35:51.853Z,1003.00
2022-12-12T00:36:51.829Z,1003.00
2022-12-12T00:37:51.799Z,1002.99
2022-12-12T00:38:51.790Z,1002.90
2022-12-12T00:39:51.787Z,1002.93
2022-12-12T00:40:51.811Z,1002.86
2022-12-12T00:41:51.759Z,1002.87
2022-12-12T00:42:51.752Z,1002.78
2022-12-12T00:43:51.738Z,1002.85
2022-12-12T00:44:51.733Z,1002.84
2022-12-12T00:45:51.723Z,1002.91
2022-12-12T00:46:51.791Z,1002.87
2022-12-12T00:47:51.709Z,1002.86
2022-12-12T00:48:51.717Z,1002.89
2022-12-12T00:49:51.676Z,1002.93
2022-12-12T00:50:51.665Z,1002.89
2022-12-12T00:51:51.652Z,1002.91
2022-12-12T00:52:51.655Z,1002.94
2022-12-12T00:53:51.640Z,1002.96
2022-12-12T00:54:51.655Z,1002.95
2022-12-12T00:55:51.614Z,1002.99
2022-12-12T00:56:51.596Z,1002.97
2022-12-12T00:57:51.620Z,1002.98
2022-12-12T00:58:51.615Z,1003.01
2022-12-12T00:59:51.578Z,1002.99
2022-12-12T01:00:51.562Z,1002.99
2022-12-12T01:01:51.577Z,1003.06
2022-12-12T01:02:51.613Z,1003.04
2022-12-12T01:03:51.570Z,1003.04
2022-12-12T01:04:51.518Z,1003.07
2022-12-12T01:05:51.502Z,1003.04
2022-12-12T01:06:51.540Z,1003.06
2022-12-12T01:07:51.523Z,1003.09
2022-12-12T01:08:51.475Z,1003.08
2022-12-12T01:09:51.466Z,1003.12
2022-12-12T01:10:51.458Z,1003.14
2022-12-12T01:11:51.438Z,1003.14
2022-12-12T01:12:51.493Z,1003.12
2022-12-12T01:13:51.424Z,1003.13
2022-12-12T01:14:51.417Z,1003.15
2022-12-12T01:15:51.430Z,1003.13
2022-12-12T01:16:51.387Z,1003.12
2022-12-12T01:17:51.378Z,1003.13
2022-12-12T01:18:51.397Z,1003.14
2022-12-12T01:19:51.385Z,1003.15
2022-12-12T01:20:51.348Z,1003.20
2022-12-12T01:21:51.337Z,1003.13
2022-12-12T01:22:51.326Z,1003.19
2022-12-12T01:23:51.355Z,1003.16
2022-12-12T01:24:51.304Z,1003.18
2022-12-12T01:25:51.292Z,1003.10
2022-12-12T01:26:51.278Z,1003.16
2022-12-12T01:27:51.273Z,1003.11
2022-12-12T01:28:51.286Z,1003.16
2022-12-12T01:29:51.262Z,1003.17
2022-12-12T01:30:51.244Z,1003.19
2022-12-12T01:31:51.235Z,1003.20
2022-12-12T01:32:51.224Z,1003.20
2022-12-12T01:33:51.253Z,1003.19
2022-12-12T01:34:51.194Z,1003.20
2022-12-12T01:35:51.203Z,1003.18
2022-12-12T01:36:51.178Z,1003.21
2022-12-12T01:37:51.184Z,1003.23
2022-12-12T01:38:51.154Z,1003.23
2022-12-12T01:39:51.172Z,1003.24
2022-12-12T01:40:51.157Z,1003.22
2022-12-12T01:41:51.140Z,1003.26
2022-12-12T01:42:51.109Z,1003.27
2022-12-12T01:43:51.101Z,1003.29
2022-12-12T01:44:51.121Z,1003.26
2022-12-12T01:45:51.106Z,1003.31
2022-12-12T01:46:51.110Z,1003.27
2022-12-12T01:47:51.133Z,1003.27
2022-12-12T01:48:51.044Z,1003.32
2022-12-12T01:49:51.043Z,1003.26
2022-12-12T01:50:51.026Z,1003.25
2022-12-12T01:51:51.068Z,1003.25
2022-12-12T01:52:51.017Z,1003.24
2022-12-12T01:53:50.996Z,1003.24
2022-12-12T01:54:50.989Z,1003.21
2022-12-12T01:55:50.979Z,1003.26
2022-12-12T01:56:50.997Z,1003.28
2022-12-12T01:57:50.973Z,1003.22
2022-12-12T01:58:50.934Z,1003.22
2022-12-12T01:59:50.921Z,1003.21
2022-12-12T02:00:50.941Z,1003.23
2022-12-12T02:01:50.959Z,1003.20
2022-12-12T02:02:50.934Z,1003.19
2022-12-12T02:03:50.895Z,1003.19
2022-12-12T02:04:50.889Z,1003.16
2022-12-12T02:05:50.863Z,1003.17
2022-12-12T02:06:50.857Z,1003.04
2022-12-12T02:07:50.942Z,1003.04
2022-12-12T02:08:50.842Z,1002.99
2022-12-12T02:09:50.831Z,1002.98
2022-12-12T02:10:50.819Z,1002.93
2022-12-12T02:11:50.804Z,1002.90
2022-12-12T02:12:50.825Z,1002.86
2022-12-12T02:13:50.807Z,1002.84
2022-12-12T02:14:50.771Z,1002.83
2022-12-12T02:15:50.807Z,1002.89
2022-12-12T02:16:50.744Z,1002.82
2022-12-12T02:17:50.740Z,1002.87
2022-12-12T02:18:50.773Z,1002.91
2022-12-12T02:19:50.719Z,1002.90
2022-12-12T02:20:50.710Z,1002.94
2022-12-12T02:21:50.698Z,1003.00
2022-12-12T02:22:50.677Z,1003.04
2022-12-12T02:23:50.688Z,1003.02
2022-12-12T02:24:50.696Z,1003.01
2022-12-12T02:25:50.662Z,1003.05
2022-12-12T02:26:50.655Z,1003.04
2022-12-12T02:27:50.637Z,1003.04
2022-12-12T02:28:50.650Z,1003.03
2022-12-12T02:29:50.648Z,1003.03
2022-12-12T02:30:50.624Z,1003.08
2022-12-12T02:31:50.625Z,1003.05
2022-12-12T02:32:50.589Z,1003.07
2022-12-12T02:33:50.587Z,1003.05
2022-12-12T02:34:50.569Z,1003.04
2022-12-12T02:35:50.586Z,1003.06
2022-12-12T02:36:50.546Z,1003.09
2022-12-12T02:37:50.522Z,1003.10
2022-12-12T02:38:50.519Z,1003.08
2022-12-12T02:39:50.514Z,1003.08
2022-12-12T02:40:50.522Z,1003.06
2022-12-12T02:41:50.488Z,1003.09
2022-12-12T02:42:50.472Z,1003.11
2022-12-12T02:43:50.462Z,1003.11
2022-12-12T02:44:50.456Z,1003.13
2022-12-12T02:45:50.624Z,1003.17
2022-12-12T02:46:50.526Z,1003.17
2022-12-12T02:47:50.423Z,1003.16
2022-12-12T02:48:50.404Z,1003.12
2022-12-12T02:49:50.397Z,1003.15
2022-12-12T02:50:50.393Z,1003.18
2022-12-12T02:51:50.421Z,1003.16
2022-12-12T02:52:50.369Z,1003.14
2022-12-12T02:53:50.382Z,1003.14
2022-12-12T02:54:50.349Z,1003.18
2022-12-12T02:55:50.344Z,1003.20
2022-12-12T02:56:50.366Z,1003.20
2022-12-12T02:57:50.322Z,1003.20
2022-12-12T02:58:50.344Z,1003.17
2022-12-12T02:59:50.289Z,1003.19
2022-12-12T03:00:50.330Z,1003.17
2022-12-12T03:01:50.308Z,1003.15
2022-12-12T03:02:50.281Z,1003.18
2022-12-12T03:03:50.516Z,1003.15
2022-12-12T03:04:50.241Z,1003.18
2022-12-12T03:05:50.317Z,1003.16
2022-12-12T03:06:50.250Z,1003.17
2022-12-12T03:07:50.304Z,1003.22
2022-12-12T03:08:50.224Z,1003.17
2022-12-12T03:09:50.203Z,1003.22
2022-12-12T03:10:50.176Z,1003.19
2022-12-12T03:11:50.359Z,1003.22
2022-12-12T03:12:50.183Z,1003.20
2022-12-12T03:13:50.150Z,1003.17
2022-12-12T03:14:50.142Z,1003.21
2022-12-12T03:15:50.326Z,1003.19
2022-12-12T03:16:50.103Z,1003.22
2022-12-12T03:17:57.219Z,1003.20
2022-12-12T03:18:50.076Z,1003.24
2022-12-12T03:19:50.073Z,1003.17
2022-12-12T03:20:50.075Z,1003.19
2022-12-12T03:21:50.058Z,1003.21
2022-12-12T03:22:50.032Z,1003.21
2022-12-12T03:23:50.056Z,1003.19
2022-12-12T03:24:50.022Z,1003.22
2022-12-12T03:25:50.003Z,1003.23
2022-12-12T03:26:50.002Z,1003.21
2022-12-12T03:27:50.001Z,1003.27
2022-12-12T03:28:50.005Z,1003.28
2022-12-12T03:29:49.967Z,1003.28
2022-12-12T03:30:49.962Z,1003.27
2022-12-12T03:31:50.011Z,1003.24
2022-12-12T03:32:49.981Z,1003.24
2022-12-12T03:33:49.914Z,1003.22
2022-12-12T03:34:49.915Z,1003.23
2022-12-12T03:35:49.896Z,1003.25
2022-12-12T03:36:49.898Z,1003.27
2022-12-12T03:37:49.877Z,1003.25
2022-12-12T03:38:49.900Z,1003.29
2022-12-12T03:39:49.941Z,1003.24
2022-12-12T03:40:49.850Z,1003.22
2022-12-12T03:41:49.834Z,1003.20
2022-12-12T03:42:49.844Z,1003.24
2022-12-12T03:43:49.839Z,1003.22
2022-12-12T03:44:49.813Z,1003.20
2022-12-12T03:45:49.879Z,1003.24
2022-12-12T03:46:49.797Z,1003.22
2022-12-12T03:47:49.768Z,1003.18
2022-12-12T03:48:49.756Z,1003.21
2022-12-12T03:49:50.266Z,1003.15
2022-12-12T03:50:49.765Z,1003.22
2022-12-12T03:51:49.733Z,1003.22
2022-12-12T03:52:49.744Z,1003.27
2022-12-12T03:53:49.712Z,1003.24
2022-12-12T03:54:49.692Z,1003.28
2022-12-12T03:55:49.694Z,1003.30
2022-12-12T03:56:49.669Z,1003.26
2022-12-12T03:57:49.694Z,1003.26
2022-12-12T03:58:49.661Z,1003.26
2022-12-12T03:59:49.661Z,1003.22
2022-12-12T04:00:49.735Z,1003.25
2022-12-12T04:01:49.782Z,1003.28
2022-12-12T04:02:49.635Z,1003.24
2022-12-12T04:03:49.600Z,1003.21
2022-12-12T04:04:49.594Z,1003.26
2022-12-12T04:05:49.578Z,1003.27
2022-12-12T04:06:49.573Z,1003.25
2022-12-12T04:07:49.728Z,1003.27
2022-12-12T04:08:49.578Z,1003.30
2022-12-12T04:09:49.542Z,1003.29
2022-12-12T04:10:49.523Z,1003.26
2022-12-12T04:11:49.548Z,1003.27
2022-12-12T04:12:49.499Z,1003.29
2022-12-12T04:13:49.494Z,1003.29
2022-12-12T04:14:49.499Z,1003.29
2022-12-12T04:15:49.497Z,1003.33
2022-12-12T04:16:49.488Z,1003.25
2022-12-12T04:17:49.482Z,1003.25
2022-12-12T04:18:49.438Z,1003.28
2022-12-12T04:19:49.466Z,1003.25
2022-12-12T04:20:49.411Z,1003.28
2022-12-12T04:21:49.414Z,1003.30
2022-12-12T04:22:49.426Z,1003.25
2022-12-12T04:23:49.411Z,1003.26
2022-12-12T04:24:49.379Z,1003.23
2022-12-12T04:25:49.382Z,1003.21
2022-12-12T04:26:49.366Z,1003.22
2022-12-12T04:27:49.341Z,1003.20
2022-12-12T04:28:49.355Z,1003.22
2022-12-12T04:29:49.341Z,1003.17
2022-12-12T04:30:49.320Z,1003.17
2022-12-12T04:31:49.406Z,1003.18
2022-12-12T04:32:49.296Z,1003.15
2022-12-12T04:33:49.286Z,1003.19
2022-12-12T04:34:49.300Z,1003.18
2022-12-12T04:35:49.271Z,1003.17
2022-12-12T04:36:49.252Z,1003.16
2022-12-12T04:37:49.281Z,1003.21
2022-12-12T04:38:49.231Z,1003.22
2022-12-12T04:39:49.248Z,1003.18
2022-12-12T04:40:49.215Z,1003.21
2022-12-12T04:41:49.198Z,1003.24
2022-12-12T04:42:49.183Z,1003.18
2022-12-12T04:43:49.172Z,1003.24
2022-12-12T04:44:49.214Z,1003.23
2022-12-12T04:45:49.223Z,1003.20
2022-12-12T04:46:49.151Z,1003.22
2022-12-12T04:47:49.178Z,1003.19
2022-12-12T04:48:51.842Z,1003.17
2022-12-12T04:49:49.108Z,1003.19
2022-12-12T04:50:49.175Z,1003.22
2022-12-12T04:51:49.085Z,1003.20
2022-12-12T04:52:49.069Z,1003.19
2022-12-12T04:53:49.071Z,1003.18
2022-12-12T04:54:49.055Z,1003.20
2022-12-12T04:55:49.053Z,1003.22
2022-12-12T04:56:49.066Z,1003.19
2022-12-12T04:57:49.030Z,1003.25
2022-12-12T04:58:49.010Z,1003.23
2022-12-12T04:59:49.012Z,1003.21
2022-12-12T05:00:49.061Z,1003.22
2022-12-12T05:01:53.209Z,1003.24
2022-12-12T05:02:49.026Z,1003.20
2022-12-12T05:03:48.988Z,1003.29
2022-12-12T05:04:48.946Z,1003.24
2022-12-12T05:05:48.944Z,1003.25
2022-12-12T05:06:48.940Z,1003.26
2022-12-12T05:07:49.023Z,1003.27
2022-12-12T05:08:48.916Z,1003.26
2022-12-12T05:09:48.898Z,1003.31
2022-12-12T05:10:48.909Z,1003.26
2022-12-12T05:11:48.911Z,1003.25
2022-12-12T05:12:48.860Z,1003.30
2022-12-12T05:13:48.876Z,1003.31
2022-12-12T05:14:48.845Z,1003.31
2022-12-12T05:15:48.827Z,1003.35
2022-12-12T05:16:48.882Z,1003.31
2022-12-12T05:17:48.838Z,1003.40
2022-12-12T05:18:48.796Z,1003.34
2022-12-12T05:19:48.806Z,1003.35
2022-12-12T05:20:48.775Z,1003.35
2022-12-12T05:21:48.774Z,1003.38
2022-12-12T05:22:48.753Z,1003.37
2022-12-12T05:23:48.779Z,1003.34
2022-12-12T05:24:48.736Z,1003.36
2022-12-12T05:25:48.730Z,1003.35
2022-12-12T05:26:48.705Z,1003.37
2022-12-12T05:27:48.724Z,1003.44
2022-12-12T05:28:48.727Z,1003.38
2022-12-12T05:29:48.676Z,1003.39
2022-12-12T05:30:48.755Z,1003.37
2022-12-12T05:31:48.661Z,1003.40
2022-12-12T05:32:48.657Z,1003.41
2022-12-12T05:33:48.685Z,1003.36
2022-12-12T05:34:48.642Z,1003.38
2022-12-12T05:35:48.661Z,1003.36
2022-12-12T05:36:48.602Z,1003.35
2022-12-12T05:37:52.008Z,1003.40
2022-12-12T05:38:48.584Z,1003.36
2022-12-12T05:39:48.606Z,1003.36
2022-12-12T05:40:48.580Z,1003.33
2022-12-12T05:41:48.554Z,1003.37
2022-12-12T05:42:48.546Z,1003.38
2022-12-12T05:43:48.526Z,1003.36
2022-12-12T05:44:48.518Z,1003.36
2022-12-12T05:45:48.585Z,1003.36
2022-12-12T05:46:48.504Z,1003.35
2022-12-12T05:47:48.511Z,1003.35
2022-12-12T05:48:48.474Z,1003.39
2022-12-12T05:49:48.476Z,1003.37
2022-12-12T05:50:48.458Z,1003.41
2022-12-12T05:51:48.470Z,1003.40
2022-12-12T05:52:48.473Z,1003.42
2022-12-12T05:53:48.422Z,1003.45
2022-12-12T05:54:48.418Z,1003.42
2022-12-12T05:55:48.410Z,1003.44
2022-12-12T05:56:48.426Z,1003.46
2022-12-12T05:57:48.389Z,1003.45
2022-12-12T05:58:48.455Z,1003.43
2022-12-12T05:59:48.355Z,1003.45
2022-12-12T06:00:48.349Z,1003.40
2022-12-12T06:01:48.426Z,1003.38
2022-12-12T06:02:51.296Z,1003.47
2022-12-12T06:03:48.382Z,1003.43
2022-12-12T06:04:49.710Z,1003.42
2022-12-12T06:05:48.300Z,1003.41
2022-12-12T06:06:48.286Z,1003.39
2022-12-12T06:07:48.434Z,1003.45
2022-12-12T06:08:48.267Z,1003.42
2022-12-12T06:09:48.352Z,1003.47
2022-12-12T06:10:48.275Z,1003.44
2022-12-12T06:11:48.260Z,1003.49
2022-12-12T06:12:48.228Z,1003.51
2022-12-12T06:13:48.211Z,1003.50
2022-12-12T06:14:48.201Z,1003.44
2022-12-12T06:15:48.221Z,1003.48
2022-12-12T06:16:48.213Z,1003.48
2022-12-12T06:17:48.168Z,1003.47
2022-12-12T06:18:48.157Z,1003.49
2022-12-12T06:19:48.147Z,1003.52
2022-12-12T06:20:48.136Z,1003.54
2022-12-12T06:21:48.160Z,1003.53
2022-12-12T06:22:53.463Z,1003.56
2022-12-12T06:23:49.126Z,1003.51
2022-12-12T06:24:48.104Z,1003.49
2022-12-12T06:25:48.112Z,1003.52
2022-12-12T06:26:48.099Z,1003.54
2022-12-12T06:27:48.111Z,1003.54
2022-12-12T06:28:48.050Z,1003.59
2022-12-12T06:29:48.052Z,1003.54
2022-12-12T06:30:48.120Z,1003.60
2022-12-12T06:31:48.012Z,1003.62
2022-12-12T06:32:48.011Z,1003.65
2022-12-12T06:33:52.949Z,1003.59
2022-12-12T06:34:47.989Z,1003.59
2022-12-12T06:35:47.977Z,1003.62
2022-12-12T06:36:48.005Z,1003.62
2022-12-12T06:37:47.973Z,1003.63
2022-12-12T06:38:47.978Z,1003.67
2022-12-12T06:39:47.958Z,1003.67
2022-12-12T06:40:47.927Z,1003.69
2022-12-12T06:41:47.949Z,1003.70
2022-12-12T06:42:48.967Z,1003.71
2022-12-12T06:43:47.911Z,1003.72
2022-12-12T06:44:47.901Z,1003.70
2022-12-12T06:45:47.872Z,1003.71
2022-12-12T06:46:47.857Z,1003.73
2022-12-12T06:47:47.871Z,1003.75
2022-12-12T06:48:47.850Z,1003.73
2022-12-12T06:49:47.833Z,1003.80
2022-12-12T06:50:47.818Z,1003.74
2022-12-12T06:51:47.811Z,1003.82
2022-12-12T06:52:47.795Z,1003.77
2022-12-12T06:53:47.826Z,1003.76
2022-12-12T06:54:47.780Z,1003.79
2022-12-12T06:55:47.847Z,1003.78
2022-12-12T06:56:48.615Z,1003.85
2022-12-12T06:57:47.748Z,1003.82
2022-12-12T06:58:47.739Z,1003.86
2022-12-12T06:59:47.752Z,1003.89
2022-12-12T07:00:47.705Z,1003.89
2022-12-12T07:01:47.819Z,1003.83
2022-12-12T07:02:47.737Z,1003.84
2022-12-12T07:03:47.673Z,1003.85
2022-12-12T07:04:47.694Z,1003.88
2022-12-12T07:05:47.660Z,1003.88
2022-12-12T07:06:47.641Z,1003.90
2022-12-12T07:07:47.668Z,1003.88
2022-12-12T07:08:47.620Z,1003.87
2022-12-12T07:09:47.619Z,1003.93
2022-12-12T07:10:47.624Z,1003.90
2022-12-12T07:11:47.623Z,1003.91
2022-12-12T07:12:47.921Z,1003.93
2022-12-12T07:13:47.603Z,1003.88
2022-12-12T07:14:47.563Z,1003.87
2022-12-12T07:15:47.613Z,1003.87
2022-12-12T07:16:47.533Z,1003.91
2022-12-12T07:17:47.554Z,1003.92
2022-12-12T07:18:47.525Z,1003.95
2022-12-12T07:19:47.506Z,1003.94
2022-12-12T07:20:47.520Z,1003.97
2022-12-12T07:21:48.258Z,1003.98
2022-12-12T07:22:47.498Z,1004.01
2022-12-12T07:23:47.468Z,1004.00
2022-12-12T07:24:47.462Z,1003.99
2022-12-12T07:25:47.468Z,1004.02
2022-12-12T07:26:47.436Z,1004.02
2022-12-12T07:27:47.438Z,1004.00
2022-12-12T07:28:47.435Z,1004.04
2022-12-12T07:29:47.404Z,1004.06
2022-12-12T07:30:47.416Z,1004.07
2022-12-12T07:31:47.399Z,1004.06
2022-12-12T07:32:47.399Z,1004.07
2022-12-12T07:33:47.368Z,1004.10
2022-12-12T07:34:47.390Z,1004.10
2022-12-12T07:35:47.335Z,1004.08
2022-12-12T07:36:47.360Z,1004.10
2022-12-12T07:37:47.320Z,1004.12
2022-12-12T07:38:47.311Z,1004.11
2022-12-12T07:39:47.306Z,1004.06
2022-12-12T07:40:47.315Z,1004.05
2022-12-12T07:41:47.271Z,1004.11
2022-12-12T07:42:47.254Z,1004.05
2022-12-12T07:43:47.358Z,1004.07
2022-12-12T07:44:47.258Z,1004.14
2022-12-12T07:45:47.240Z,1004.13
2022-12-12T07:46:47.278Z,1004.13
2022-12-12T07:47:47.244Z,1004.18
2022-12-12T07:48:47.198Z,1004.17
2022-12-12T07:49:47.194Z,1004.21
2022-12-12T07:50:47.204Z,1004.20
2022-12-12T07:51:49.184Z,1004.19
2022-12-12T07:52:47.160Z,1004.17
2022-12-12T07:53:47.176Z,1004.17
2022-12-12T07:54:47.135Z,1004.21
2022-12-12T07:55:47.121Z,1004.20
2022-12-12T07:56:47.107Z,1004.20
2022-12-12T07:57:47.096Z,1004.23
2022-12-12T07:58:47.120Z,1004.24
2022-12-12T07:59:47.130Z,1004.26
2022-12-12T08:00:47.072Z,1004.25
2022-12-12T08:01:47.118Z,1004.25
2022-12-12T08:02:47.054Z,1004.27
2022-12-12T08:03:47.055Z,1004.29
2022-12-12T08:04:47.112Z,1004.32
2022-12-12T08:05:47.013Z,1004.30
2022-12-12T08:06:47.012Z,1004.28
2022-12-12T08:07:47.054Z,1004.33
2022-12-12T08:08:47.038Z,1004.32
2022-12-12T08:09:46.980Z,1004.32
2022-12-12T08:10:46.971Z,1004.40
2022-12-12T08:11:47.086Z,1004.39
2022-12-12T08:12:46.933Z,1004.38
2022-12-12T08:13:46.938Z,1004.39
2022-12-12T08:14:46.996Z,1004.40
2022-12-12T08:15:46.989Z,1004.40
2022-12-12T08:16:46.921Z,1004.44
2022-12-12T08:17:46.880Z,1004.43
2022-12-12T08:18:46.923Z,1004.48
2022-12-12T08:19:46.877Z,1004.46
2022-12-12T08:20:46.866Z,1004.48
2022-12-12T08:21:46.861Z,1004.49
2022-12-12T08:22:46.833Z,1004.51
2022-12-12T08:23:46.828Z,1004.54
2022-12-12T08:24:46.848Z,1004.55
2022-12-12T08:25:46.832Z,1004.55
2022-12-12T08:26:46.790Z,1004.53
2022-12-12T08:27:46.824Z,1004.52
2022-12-12T08:28:46.765Z,1004.55
2022-12-12T08:29:46.757Z,1004.53
2022-12-12T08:30:46.759Z,1004.56
2022-12-12T08:31:47.066Z,1004.54
2022-12-12T08:32:46.729Z,1004.56
2022-12-12T08:33:46.719Z,1004.54
2022-12-12T08:34:46.707Z,1004.54
2022-12-12T08:35:46.702Z,1004.57
2022-12-12T08:36:46.702Z,1004.58
2022-12-12T08:37:46.674Z,1004.53
2022-12-12T08:38:46.674Z,1004.54
2022-12-12T08:39:50.331Z,1004.54
2022-12-12T08:40:47.645Z,1004.59
2022-12-12T08:41:46.643Z,1004.57
2022-12-12T08:42:46.619Z,1004.62
2022-12-12T08:43:46.652Z,1004.59
2022-12-12T08:44:46.628Z,1004.59
2022-12-12T08:45:46.585Z,1004.64
2022-12-12T08:46:46.707Z,1004.67
2022-12-12T08:47:46.594Z,1004.63
2022-12-12T08:48:46.581Z,1004.62
2022-12-12T08:49:46.557Z,1004.64
2022-12-12T08:50:46.531Z,1004.69
2022-12-12T08:51:46.526Z,1004.70
2022-12-12T08:52:46.506Z,1004.70
2022-12-12T08:53:46.500Z,1004.76
2022-12-12T08:54:46.539Z,1004.79
2022-12-12T08:55:46.485Z,1004.72
2022-12-12T08:56:46.474Z,1004.76
2022-12-12T08:57:47.621Z,1004.76
2022-12-12T08:58:46.441Z,1004.77
2022-12-12T08:59:46.435Z,1004.81
2022-12-12T09:00:46.431Z,1004.81
2022-12-12T09:01:46.540Z,1004.82
2022-12-12T09:02:46.545Z,1004.82
2022-12-12T09:03:46.417Z,1004.86
2022-12-12T09:04:46.485Z,1004.88
2022-12-12T09:05:46.394Z,1004.90
2022-12-12T09:06:46.369Z,1004.92
2022-12-12T09:07:46.412Z,1004.88
2022-12-12T09:08:47.359Z,1004.93
2022-12-12T09:09:46.357Z,1004.95
2022-12-12T09:10:46.319Z,1004.92
2022-12-12T09:11:46.312Z,1004.96
2022-12-12T09:12:46.303Z,1004.96
2022-12-12T09:13:46.283Z,1004.99
2022-12-12T09:14:46.783Z,1004.95
2022-12-12T09:15:46.397Z,1004.96
2022-12-12T09:16:46.268Z,1005.04
2022-12-12T09:17:46.247Z,1004.98
2022-12-12T09:18:55.326Z,1005.07
2022-12-12T09:19:46.232Z,1005.04
2022-12-12T09:20:46.220Z,1005.07
2022-12-12T09:21:46.236Z,1005.07
2022-12-12T09:22:46.204Z,1005.05
2022-12-12T09:23:46.189Z,1005.04
2022-12-12T09:24:46.178Z,1005.05
2022-12-12T09:25:46.153Z,1005.07
2022-12-12T09:26:46.167Z,1005.10
2022-12-12T09:27:46.139Z,1005.08
2022-12-12T09:28:46.144Z,1005.11
2022-12-12T09:29:46.131Z,1005.11
2022-12-12T09:30:46.119Z,1005.14
2022-12-12T09:31:46.205Z,1005.08
2022-12-12T09:32:46.107Z,1005.11
2022-12-12T09:33:46.083Z,1005.09
2022-12-12T09:34:46.080Z,1005.13
2022-12-12T09:35:46.068Z,1005.07
2022-12-12T09:36:46.095Z,1005.08
2022-12-12T09:37:46.103Z,1005.07
2022-12-12T09:38:46.042Z,1005.08
2022-12-12T09:39:46.027Z,1005.11
2022-12-12T09:40:46.030Z,1005.09
2022-12-12T09:41:46.004Z,1005.09
2022-12-12T09:42:46.000Z,1005.08
2022-12-12T09:43:46.024Z,1005.07
2022-12-12T09:44:45.974Z,1005.13
2022-12-12T09:45:46.000Z,1005.05
2022-12-12T09:46:45.949Z,1005.10
2022-12-12T09:47:45.953Z,1005.13
2022-12-12T09:48:45.942Z,1005.09
2022-12-12T09:49:46.004Z,1005.06
2022-12-12T09:50:45.965Z,1005.13
2022-12-12T09:51:45.914Z,1005.11
2022-12-12T09:52:45.955Z,1005.10
2022-12-12T09:53:45.900Z,1005.03
2022-12-12T09:54:45.886Z,1005.09
2022-12-12T09:55:45.865Z,1005.08
2022-12-12T09:56:45.841Z,1005.10
2022-12-12T09:57:45.825Z,1005.08
2022-12-12T09:58:50.108Z,1005.09
2022-12-12T09:59:45.831Z,1005.09
2022-12-12T10:00:45.826Z,1005.11
2022-12-12T10:01:45.811Z,1005.12
2022-12-12T10:02:45.777Z,1005.09
2022-12-12T10:03:45.766Z,1005.09
2022-12-12T10:04:50.736Z,1005.08
2022-12-12T10:05:45.753Z,1005.05
2022-12-12T10:06:45.746Z,1005.04
2022-12-12T10:07:45.731Z,1005.06
2022-12-12T10:08:45.697Z,1005.02
2022-12-12T10:09:45.697Z,1005.03
2022-12-12T10:10:45.698Z,1005.04
2022-12-12T10:11:45.669Z,1005.07
2022-12-12T10:12:45.665Z,1005.05
2022-12-12T10:13:45.656Z,1005.04
2022-12-12T10:14:45.649Z,1005.02
2022-12-12T10:15:45.637Z,1005.07
2022-12-12T10:16:45.732Z,1005.04
2022-12-12T10:17:45.610Z,1005.07
2022-12-12T10:18:45.600Z,1005.14
2022-12-12T10:19:45.592Z,1005.08
2022-12-12T10:20:45.601Z,1005.11
2022-12-12T10:21:45.559Z,1005.06
2022-12-12T10:22:45.591Z,1005.10
2022-12-12T10:23:45.553Z,1005.12
2022-12-12T10:24:45.601Z,1005.13
2022-12-12T10:25:45.546Z,1005.10
2022-12-12T10:26:45.520Z,1005.12
2022-12-12T10:27:45.520Z,1005.16
2022-12-12T10:28:45.492Z,1005.11
2022-12-12T10:29:45.502Z,1005.10
2022-12-12T10:30:45.474Z,1005.08
2022-12-12T10:31:45.568Z,1005.10
2022-12-12T10:32:45.469Z,1005.09
2022-12-12T10:33:45.435Z,1005.16
2022-12-12T10:34:45.427Z,1005.15
2022-12-12T10:35:45.438Z,1005.13
2022-12-12T10:36:45.415Z,1005.09
2022-12-12T10:37:45.397Z,1005.13
2022-12-12T10:38:45.404Z,1005.12
2022-12-12T10:39:45.383Z,1005.11
2022-12-12T10:40:45.370Z,1005.11
2022-12-12T10:41:45.369Z,1005.14
2022-12-12T10:42:45.336Z,1005.07
2022-12-12T10:43:45.340Z,1005.09
2022-12-12T10:44:47.400Z,1005.10
2022-12-12T10:45:45.345Z,1005.12
2022-12-12T10:46:45.348Z,1005.14
2022-12-12T10:47:45.321Z,1005.07
2022-12-12T10:48:45.271Z,1005.02
2022-12-12T10:49:45.270Z,1005.10
2022-12-12T10:50:45.250Z,1005.05
2022-12-12T10:51:45.245Z,1005.02
2022-12-12T10:52:45.237Z,1005.07
2022-12-12T10:53:45.391Z,1005.06
2022-12-12T10:54:45.294Z,1005.01
2022-12-12T10:55:45.203Z,1005.02
2022-12-12T10:56:45.210Z,1005.03
2022-12-12T10:57:45.182Z,1005.04
2022-12-12T10:58:45.189Z,1005.06
2022-12-12T10:59:45.158Z,1005.10
2022-12-12T11:00:45.180Z,1005.07
2022-12-12T11:02:08.868Z,1005.12
2022-12-12T11:02:46.229Z,1005.10
2022-12-12T11:03:45.195Z,1005.10
2022-12-12T11:04:45.128Z,1005.11
2022-12-12T11:05:45.081Z,1005.11
2022-12-12T11:06:45.132Z,1005.11
2022-12-12T11:07:45.070Z,1005.14
2022-12-12T11:08:45.054Z,1005.16
2022-12-12T11:09:45.062Z,1005.10
2022-12-12T11:10:45.056Z,1005.11
2022-12-12T11:11:45.020Z,1005.16
2022-12-12T11:12:45.004Z,1005.10
2022-12-12T11:13:45.002Z,1005.11
2022-12-12T11:14:45.035Z,1005.15
2022-12-12T11:15:44.974Z,1005.16
2022-12-12T11:16:45.017Z,1005.19
2022-12-12T11:17:44.986Z,1005.15
2022-12-12T11:18:44.942Z,1005.16
2022-12-12T11:19:44.943Z,1005.16
2022-12-12T11:20:44.938Z,1005.13
2022-12-12T11:21:44.924Z,1005.15
2022-12-12T11:22:44.915Z,1005.11
2022-12-12T11:23:44.890Z,1005.12
2022-12-12T11:24:44.889Z,1005.11
2022-12-12T11:25:44.958Z,1005.06
2022-12-12T11:26:44.879Z,1005.09
2022-12-12T11:27:44.845Z,1005.07
2022-12-12T11:28:44.852Z,1005.07
2022-12-12T11:29:44.840Z,1005.01
2022-12-12T11:30:44.899Z,1005.08
2022-12-12T11:31:45.005Z,1005.02
2022-12-12T11:32:44.803Z,1005.06
2022-12-12T11:33:44.785Z,1005.04
2022-12-12T11:34:44.786Z,1005.06
2022-12-12T11:35:47.746Z,1005.00
2022-12-12T11:36:44.749Z,1005.02
2022-12-12T11:37:44.736Z,1005.05
2022-12-12T11:38:44.733Z,1005.06
2022-12-12T11:39:44.725Z,1005.06
2022-12-12T11:40:44.724Z,1005.09
2022-12-12T11:41:44.714Z,1005.07
2022-12-12T11:42:44.736Z,1005.09
2022-12-12T11:43:44.682Z,1005.10
2022-12-12T11:44:44.688Z,1005.12
2022-12-12T11:45:44.761Z,1005.15
2022-12-12T11:46:44.667Z,1005.17
2022-12-12T11:47:44.642Z,1005.15
2022-12-12T11:48:44.624Z,1005.17
2022-12-12T11:49:44.609Z,1005.17
2022-12-12T11:50:44.611Z,1005.23
2022-12-12T11:51:44.618Z,1005.20
2022-12-12T11:52:44.589Z,1005.16
2022-12-12T11:53:44.580Z,1005.19
2022-12-12T11:54:44.561Z,1005.21
2022-12-12T11:55:44.549Z,1005.14
2022-12-12T11:56:44.571Z,1005.15
2022-12-12T11:57:44.534Z,1005.18
2022-12-12T11:58:44.621Z,1005.20
2022-12-12T11:59:44.530Z,1005.19
2022-12-12T12:00:44.502Z,1005.21
2022-12-12T12:01:44.516Z,1005.22
2022-12-12T12:02:44.463Z,1005.20
2022-12-12T12:03:44.538Z,1005.28
2022-12-12T12:04:49.592Z,1005.27
2022-12-12T12:05:44.468Z,1005.22